sensor_id;sensor_type;location;lat;lon;timestamp;P1;durP1;ratioP1;P2;durP2;ratioP2
60030;SDS011;45901;47.600;9.890;2023-03-18T00:00:32;14.87;;;6.80;;
60030;SDS011;45901;47.600;9.890;2023-03-18T00:03:00;13.07;;;5.87;;
60030;SDS011;45901;47.600;9.890;2023-03-18T00:05:27;15.33;;;7.20;;
60030;SDS011;45901;47.600;9.890;2023-03-18T00:07:55;12.57;;;7.47;;
60030;SDS011;45901;47.600;9.890;2023-03-18T00:10:23;15.13;;;7.30;;
60030;SDS011;45901;47.600;9.890;2023-03-18T00:12:51;13.17;;;6.77;;
60030;SDS011;45901;47.600;9.890;2023-03-18T00:15:19;13.37;;;6.37;;
60030;SDS011;45901;47.600;9.890;2023-03-18T00:17:48;14.37;;;6.63;;
60030;SDS011;45901;47.600;9.890;2023-03-18T00:20:16;15.60;;;7.00;;
60030;SDS011;45901;47.600;9.890;2023-03-18T00:22:53;15.63;;;7.03;;
60030;SDS011;45901;47.600;9.890;2023-03-18T00:25:22;15.33;;;6.97;;
60030;SDS011;45901;47.600;9.890;2023-03-18T00:27:50;14.33;;;6.93;;
60030;SDS011;45901;47.600;9.890;2023-03-18T00:30:18;12.57;;;7.07;;
60030;SDS011;45901;47.600;9.890;2023-03-18T00:32:46;14.33;;;7.70;;
60030;SDS011;45901;47.600;9.890;2023-03-18T00:35:15;15.20;;;7.63;;
60030;SDS011;45901;47.600;9.890;2023-03-18T00:37:43;15.50;;;7.73;;
60030;SDS011;45901;47.600;9.890;2023-03-18T00:40:12;18.27;;;7.63;;
60030;SDS011;45901;47.600;9.890;2023-03-18T00:42:44;16.13;;;8.07;;
60030;SDS011;45901;47.600;9.890;2023-03-18T00:45:21;14.03;;;7.17;;
60030;SDS011;45901;47.600;9.890;2023-03-18T00:47:51;16.27;;;7.87;;
60030;SDS011;45901;47.600;9.890;2023-03-18T00:50:19;12.57;;;7.20;;
60030;SDS011;45901;47.600;9.890;2023-03-18T00:52:46;17.53;;;8.67;;
60030;SDS011;45901;47.600;9.890;2023-03-18T00:55:14;16.47;;;8.00;;
60030;SDS011;45901;47.600;9.890;2023-03-18T00:57:42;14.50;;;7.73;;
60030;SDS011;45901;47.600;9.890;2023-03-18T01:00:10;13.20;;;7.10;;
60030;SDS011;45901;47.600;9.890;2023-03-18T01:02:41;15.67;;;7.40;;
60030;SDS011;45901;47.600;9.890;2023-03-18T01:05:11;14.17;;;7.50;;
60030;SDS011;45901;47.600;9.890;2023-03-18T01:07:39;12.57;;;6.10;;
60030;SDS011;45901;47.600;9.890;2023-03-18T01:10:08;15.90;;;7.23;;
60030;SDS011;45901;47.600;9.890;2023-03-18T01:12:37;14.80;;;6.97;;
60030;SDS011;45901;47.600;9.890;2023-03-18T01:15:06;14.70;;;6.80;;
60030;SDS011;45901;47.600;9.890;2023-03-18T01:17:35;13.50;;;6.73;;
60030;SDS011;45901;47.600;9.890;2023-03-18T01:20:02;13.60;;;6.73;;
60030;SDS011;45901;47.600;9.890;2023-03-18T01:22:32;13.53;;;6.53;;
60030;SDS011;45901;47.600;9.890;2023-03-18T01:25:00;12.03;;;6.97;;
60030;SDS011;45901;47.600;9.890;2023-03-18T01:27:27;13.10;;;6.90;;
60030;SDS011;45901;47.600;9.890;2023-03-18T01:29:55;11.37;;;5.83;;
60030;SDS011;45901;47.600;9.890;2023-03-18T01:32:22;10.67;;;6.40;;
60030;SDS011;45901;47.600;9.890;2023-03-18T01:34:50;9.13;;;5.30;;
60030;SDS011;45901;47.600;9.890;2023-03-18T01:37:18;10.20;;;5.50;;
60030;SDS011;45901;47.600;9.890;2023-03-18T01:39:47;10.30;;;5.63;;
60030;SDS011;45901;47.600;9.890;2023-03-18T01:42:14;9.27;;;4.80;;
60030;SDS011;45901;47.600;9.890;2023-03-18T01:44:42;7.17;;;4.20;;
60030;SDS011;45901;47.600;9.890;2023-03-18T01:47:10;9.07;;;4.07;;
60030;SDS011;45901;47.600;9.890;2023-03-18T01:49:41;7.37;;;3.97;;
60030;SDS011;45901;47.600;9.890;2023-03-18T01:52:14;7.20;;;3.80;;
60030;SDS011;45901;47.600;9.890;2023-03-18T01:54:48;6.60;;;3.70;;
60030;SDS011;45901;47.600;9.890;2023-03-18T01:57:21;6.57;;;3.97;;
60030;SDS011;45901;47.600;9.890;2023-03-18T01:59:49;8.03;;;4.23;;
60030;SDS011;45901;47.600;9.890;2023-03-18T02:02:19;9.80;;;4.40;;
60030;SDS011;45901;47.600;9.890;2023-03-18T02:04:48;8.77;;;4.13;;
60030;SDS011;45901;47.600;9.890;2023-03-18T02:07:19;7.03;;;4.17;;
60030;SDS011;45901;47.600;9.890;2023-03-18T02:09:50;8.33;;;4.57;;
60030;SDS011;45901;47.600;9.890;2023-03-18T02:12:20;9.83;;;4.13;;
60030;SDS011;45901;47.600;9.890;2023-03-18T02:14:52;8.43;;;3.93;;
60030;SDS011;45901;47.600;9.890;2023-03-18T02:17:21;6.97;;;3.60;;
60030;SDS011;45901;47.600;9.890;2023-03-18T02:19:55;8.97;;;4.27;;
60030;SDS011;45901;47.600;9.890;2023-03-18T02:22:35;11.83;;;4.10;;
60030;SDS011;45901;47.600;9.890;2023-03-18T02:25:15;7.83;;;3.23;;
60030;SDS011;45901;47.600;9.890;2023-03-18T02:27:54;7.97;;;3.97;;
60030;SDS011;45901;47.600;9.890;2023-03-18T02:30:29;7.00;;;3.37;;
60030;SDS011;45901;47.600;9.890;2023-03-18T02:33:01;5.40;;;3.30;;
60030;SDS011;45901;47.600;9.890;2023-03-18T02:35:29;9.03;;;3.30;;
60030;SDS011;45901;47.600;9.890;2023-03-18T02:37:59;8.47;;;3.20;;
60030;SDS011;45901;47.600;9.890;2023-03-18T02:40:28;6.40;;;3.10;;
60030;SDS011;45901;47.600;9.890;2023-03-18T02:43:10;5.73;;;3.23;;
60030;SDS011;45901;47.600;9.890;2023-03-18T02:45:47;7.40;;;3.30;;
60030;SDS011;45901;47.600;9.890;2023-03-18T02:48:31;6.13;;;2.93;;
60030;SDS011;45901;47.600;9.890;2023-03-18T02:51:06;10.07;;;2.73;;
60030;SDS011;45901;47.600;9.890;2023-03-18T02:53:34;6.87;;;3.20;;
60030;SDS011;45901;47.600;9.890;2023-03-18T02:56:03;8.10;;;2.40;;
60030;SDS011;45901;47.600;9.890;2023-03-18T02:58:34;6.47;;;2.50;;
60030;SDS011;45901;47.600;9.890;2023-03-18T03:01:02;4.30;;;2.20;;
60030;SDS011;45901;47.600;9.890;2023-03-18T03:03:30;5.13;;;2.03;;
60030;SDS011;45901;47.600;9.890;2023-03-18T03:05:59;6.47;;;2.33;;
60030;SDS011;45901;47.600;9.890;2023-03-18T03:08:27;3.97;;;2.27;;
60030;SDS011;45901;47.600;9.890;2023-03-18T03:10:56;4.87;;;2.60;;
60030;SDS011;45901;47.600;9.890;2023-03-18T03:13:23;6.20;;;2.30;;
60030;SDS011;45901;47.600;9.890;2023-03-18T03:15:53;4.83;;;2.10;;
60030;SDS011;45901;47.600;9.890;2023-03-18T03:18:21;4.50;;;1.87;;
60030;SDS011;45901;47.600;9.890;2023-03-18T03:20:49;4.53;;;2.00;;
60030;SDS011;45901;47.600;9.890;2023-03-18T03:23:17;3.40;;;2.07;;
60030;SDS011;45901;47.600;9.890;2023-03-18T03:25:45;4.50;;;2.10;;
60030;SDS011;45901;47.600;9.890;2023-03-18T03:28:13;6.23;;;2.00;;
60030;SDS011;45901;47.600;9.890;2023-03-18T03:30:42;3.27;;;2.03;;
60030;SDS011;45901;47.600;9.890;2023-03-18T03:33:11;6.40;;;2.20;;
60030;SDS011;45901;47.600;9.890;2023-03-18T03:35:39;2.27;;;1.50;;
60030;SDS011;45901;47.600;9.890;2023-03-18T03:38:07;3.00;;;1.60;;
60030;SDS011;45901;47.600;9.890;2023-03-18T03:40:35;4.13;;;1.80;;
60030;SDS011;45901;47.600;9.890;2023-03-18T03:43:03;4.40;;;1.80;;
60030;SDS011;45901;47.600;9.890;2023-03-18T03:45:31;3.97;;;1.97;;
60030;SDS011;45901;47.600;9.890;2023-03-18T03:47:59;2.50;;;1.67;;
60030;SDS011;45901;47.600;9.890;2023-03-18T03:50:28;4.40;;;1.90;;
60030;SDS011;45901;47.600;9.890;2023-03-18T03:52:56;2.33;;;1.53;;
60030;SDS011;45901;47.600;9.890;2023-03-18T03:55:23;3.53;;;1.87;;
60030;SDS011;45901;47.600;9.890;2023-03-18T03:57:51;4.80;;;1.80;;
60030;SDS011;45901;47.600;9.890;2023-03-18T04:00:19;3.97;;;2.13;;
60030;SDS011;45901;47.600;9.890;2023-03-18T04:02:49;4.93;;;2.20;;
60030;SDS011;45901;47.600;9.890;2023-03-18T04:05:19;4.57;;;2.03;;
60030;SDS011;45901;47.600;9.890;2023-03-18T04:07:50;4.17;;;2.00;;
60030;SDS011;45901;47.600;9.890;2023-03-18T04:10:19;3.93;;;1.73;;
60030;SDS011;45901;47.600;9.890;2023-03-18T04:12:47;5.20;;;2.20;;
60030;SDS011;45901;47.600;9.890;2023-03-18T04:15:15;3.57;;;1.70;;
60030;SDS011;45901;47.600;9.890;2023-03-18T04:17:46;2.90;;;1.70;;
60030;SDS011;45901;47.600;9.890;2023-03-18T04:20:14;4.73;;;1.80;;
60030;SDS011;45901;47.600;9.890;2023-03-18T04:22:42;4.60;;;2.30;;
60030;SDS011;45901;47.600;9.890;2023-03-18T04:25:12;4.73;;;2.17;;
60030;SDS011;45901;47.600;9.890;2023-03-18T04:27:40;5.23;;;1.97;;
60030;SDS011;45901;47.600;9.890;2023-03-18T04:30:08;3.87;;;1.97;;
60030;SDS011;45901;47.600;9.890;2023-03-18T04:32:37;3.00;;;1.90;;
60030;SDS011;45901;47.600;9.890;2023-03-18T04:35:05;4.97;;;2.00;;
60030;SDS011;45901;47.600;9.890;2023-03-18T04:37:35;4.33;;;2.33;;
60030;SDS011;45901;47.600;9.890;2023-03-18T04:40:04;5.90;;;2.83;;
60030;SDS011;45901;47.600;9.890;2023-03-18T04:42:34;4.17;;;2.10;;
60030;SDS011;45901;47.600;9.890;2023-03-18T04:45:02;5.07;;;2.30;;
60030;SDS011;45901;47.600;9.890;2023-03-18T04:47:30;6.20;;;2.57;;
60030;SDS011;45901;47.600;9.890;2023-03-18T04:50:00;8.10;;;2.70;;
60030;SDS011;45901;47.600;9.890;2023-03-18T04:52:28;5.87;;;2.60;;
60030;SDS011;45901;47.600;9.890;2023-03-18T04:54:56;4.50;;;2.67;;
60030;SDS011;45901;47.600;9.890;2023-03-18T04:57:24;7.53;;;2.63;;
60030;SDS011;45901;47.600;9.890;2023-03-18T04:59:53;5.30;;;2.73;;
60030;SDS011;45901;47.600;9.890;2023-03-18T05:02:21;5.43;;;2.50;;
60030;SDS011;45901;47.600;9.890;2023-03-18T05:04:48;5.53;;;2.77;;
60030;SDS011;45901;47.600;9.890;2023-03-18T05:07:16;5.93;;;2.60;;
60030;SDS011;45901;47.600;9.890;2023-03-18T05:09:43;5.60;;;3.10;;
60030;SDS011;45901;47.600;9.890;2023-03-18T05:12:11;4.90;;;2.70;;
60030;SDS011;45901;47.600;9.890;2023-03-18T05:14:40;5.17;;;2.70;;
60030;SDS011;45901;47.600;9.890;2023-03-18T05:17:09;7.03;;;3.80;;
60030;SDS011;45901;47.600;9.890;2023-03-18T05:19:40;4.57;;;2.27;;
60030;SDS011;45901;47.600;9.890;2023-03-18T05:22:08;8.47;;;2.83;;
60030;SDS011;45901;47.600;9.890;2023-03-18T05:24:37;5.87;;;2.73;;
60030;SDS011;45901;47.600;9.890;2023-03-18T05:27:05;5.80;;;2.83;;
60030;SDS011;45901;47.600;9.890;2023-03-18T05:29:33;4.80;;;2.87;;
60030;SDS011;45901;47.600;9.890;2023-03-18T05:32:02;5.57;;;2.73;;
60030;SDS011;45901;47.600;9.890;2023-03-18T05:34:32;7.07;;;3.43;;
60030;SDS011;45901;47.600;9.890;2023-03-18T05:37:00;5.57;;;2.77;;
60030;SDS011;45901;47.600;9.890;2023-03-18T05:39:28;4.57;;;3.03;;
60030;SDS011;45901;47.600;9.890;2023-03-18T05:41:56;5.67;;;3.70;;
60030;SDS011;45901;47.600;9.890;2023-03-18T05:44:25;6.70;;;3.87;;
60030;SDS011;45901;47.600;9.890;2023-03-18T05:46:53;6.57;;;3.70;;
60030;SDS011;45901;47.600;9.890;2023-03-18T05:49:21;6.27;;;3.57;;
60030;SDS011;45901;47.600;9.890;2023-03-18T05:51:50;6.20;;;3.60;;
60030;SDS011;45901;47.600;9.890;2023-03-18T05:54:17;7.83;;;3.77;;
60030;SDS011;45901;47.600;9.890;2023-03-18T05:56:45;3.93;;;2.03;;
60030;SDS011;45901;47.600;9.890;2023-03-18T05:59:12;4.63;;;3.07;;
60030;SDS011;45901;47.600;9.890;2023-03-18T06:01:40;13.07;;;7.67;;
60030;SDS011;45901;47.600;9.890;2023-03-18T06:04:08;14.40;;;7.87;;
60030;SDS011;45901;47.600;9.890;2023-03-18T06:06:36;9.97;;;6.13;;
60030;SDS011;45901;47.600;9.890;2023-03-18T06:09:06;10.97;;;5.10;;
60030;SDS011;45901;47.600;9.890;2023-03-18T06:11:35;11.20;;;5.40;;
60030;SDS011;45901;47.600;9.890;2023-03-18T06:14:04;13.97;;;7.80;;
60030;SDS011;45901;47.600;9.890;2023-03-18T06:16:33;14.80;;;8.73;;
60030;SDS011;45901;47.600;9.890;2023-03-18T06:19:01;13.93;;;8.63;;
60030;SDS011;45901;47.600;9.890;2023-03-18T06:21:30;11.10;;;6.67;;
60030;SDS011;45901;47.600;9.890;2023-03-18T06:23:58;10.77;;;5.93;;
60030;SDS011;45901;47.600;9.890;2023-03-18T06:26:27;13.27;;;7.27;;
60030;SDS011;45901;47.600;9.890;2023-03-18T06:28:55;10.53;;;6.97;;
60030;SDS011;45901;47.600;9.890;2023-03-18T06:31:23;12.30;;;8.00;;
60030;SDS011;45901;47.600;9.890;2023-03-18T06:33:51;12.90;;;7.93;;
60030;SDS011;45901;47.600;9.890;2023-03-18T06:36:19;13.80;;;8.23;;
60030;SDS011;45901;47.600;9.890;2023-03-18T06:38:46;13.83;;;7.53;;
60030;SDS011;45901;47.600;9.890;2023-03-18T06:41:14;11.53;;;7.43;;
60030;SDS011;45901;47.600;9.890;2023-03-18T06:43:43;10.23;;;7.37;;
60030;SDS011;45901;47.600;9.890;2023-03-18T06:46:12;11.30;;;6.83;;
60030;SDS011;45901;47.600;9.890;2023-03-18T06:48:39;11.23;;;6.90;;
60030;SDS011;45901;47.600;9.890;2023-03-18T06:51:07;12.53;;;6.83;;
60030;SDS011;45901;47.600;9.890;2023-03-18T06:53:35;10.97;;;6.40;;
60030;SDS011;45901;47.600;9.890;2023-03-18T06:56:04;10.67;;;7.40;;
60030;SDS011;45901;47.600;9.890;2023-03-18T06:58:32;12.80;;;6.47;;
60030;SDS011;45901;47.600;9.890;2023-03-18T07:01:01;11.97;;;6.27;;
60030;SDS011;45901;47.600;9.890;2023-03-18T07:03:28;13.67;;;5.57;;
60030;SDS011;45901;47.600;9.890;2023-03-18T07:05:56;6.83;;;4.37;;
60030;SDS011;45901;47.600;9.890;2023-03-18T07:08:24;8.30;;;4.80;;
60030;SDS011;45901;47.600;9.890;2023-03-18T07:10:52;9.20;;;4.90;;
60030;SDS011;45901;47.600;9.890;2023-03-18T07:13:19;7.33;;;4.13;;
60030;SDS011;45901;47.600;9.890;2023-03-18T07:15:47;5.50;;;3.67;;
60030;SDS011;45901;47.600;9.890;2023-03-18T07:18:16;6.73;;;3.83;;
60030;SDS011;45901;47.600;9.890;2023-03-18T07:20:43;6.70;;;3.63;;
60030;SDS011;45901;47.600;9.890;2023-03-18T07:23:11;6.30;;;3.20;;
60030;SDS011;45901;47.600;9.890;2023-03-18T07:25:38;4.80;;;2.60;;
60030;SDS011;45901;47.600;9.890;2023-03-18T07:28:08;5.07;;;2.23;;
60030;SDS011;45901;47.600;9.890;2023-03-18T07:30:36;5.00;;;2.83;;
60030;SDS011;45901;47.600;9.890;2023-03-18T07:33:04;8.40;;;3.03;;
60030;SDS011;45901;47.600;9.890;2023-03-18T07:35:33;7.50;;;3.77;;
60030;SDS011;45901;47.600;9.890;2023-03-18T07:38:02;7.60;;;4.27;;
60030;SDS011;45901;47.600;9.890;2023-03-18T07:40:29;10.10;;;4.40;;
60030;SDS011;45901;47.600;9.890;2023-03-18T07:42:57;12.20;;;6.17;;
60030;SDS011;45901;47.600;9.890;2023-03-18T07:45:24;11.47;;;6.73;;
60030;SDS011;45901;47.600;9.890;2023-03-18T07:47:52;10.80;;;7.27;;
60030;SDS011;45901;47.600;9.890;2023-03-18T07:50:20;10.37;;;6.00;;
60030;SDS011;45901;47.600;9.890;2023-03-18T07:52:49;12.87;;;6.23;;
60030;SDS011;45901;47.600;9.890;2023-03-18T07:55:17;8.87;;;5.27;;
60030;SDS011;45901;47.600;9.890;2023-03-18T07:57:45;8.30;;;4.47;;
60030;SDS011;45901;47.600;9.890;2023-03-18T08:00:13;8.23;;;4.73;;
60030;SDS011;45901;47.600;9.890;2023-03-18T08:02:42;10.63;;;5.37;;
60030;SDS011;45901;47.600;9.890;2023-03-18T08:05:09;13.67;;;7.37;;
60030;SDS011;45901;47.600;9.890;2023-03-18T08:07:37;9.77;;;5.60;;
60030;SDS011;45901;47.600;9.890;2023-03-18T08:10:07;6.33;;;3.23;;
60030;SDS011;45901;47.600;9.890;2023-03-18T08:12:38;7.80;;;3.40;;
60030;SDS011;45901;47.600;9.890;2023-03-18T08:15:06;9.53;;;2.20;;
60030;SDS011;45901;47.600;9.890;2023-03-18T08:17:35;7.07;;;2.17;;
60030;SDS011;45901;47.600;9.890;2023-03-18T08:20:03;5.50;;;2.43;;
60030;SDS011;45901;47.600;9.890;2023-03-18T08:22:32;5.20;;;2.50;;
60030;SDS011;45901;47.600;9.890;2023-03-18T08:24:59;8.43;;;2.70;;
60030;SDS011;45901;47.600;9.890;2023-03-18T08:27:28;8.30;;;2.10;;
60030;SDS011;45901;47.600;9.890;2023-03-18T08:29:56;5.97;;;2.60;;
60030;SDS011;45901;47.600;9.890;2023-03-18T08:32:24;6.77;;;2.10;;
60030;SDS011;45901;47.600;9.890;2023-03-18T08:34:52;7.80;;;2.37;;
60030;SDS011;45901;47.600;9.890;2023-03-18T08:37:19;6.30;;;2.77;;
60030;SDS011;45901;47.600;9.890;2023-03-18T08:39:46;7.20;;;3.20;;
60030;SDS011;45901;47.600;9.890;2023-03-18T08:42:14;3.93;;;2.33;;
60030;SDS011;45901;47.600;9.890;2023-03-18T08:44:43;6.77;;;3.27;;
60030;SDS011;45901;47.600;9.890;2023-03-18T08:47:10;6.67;;;2.57;;
60030;SDS011;45901;47.600;9.890;2023-03-18T08:49:38;6.63;;;3.10;;
60030;SDS011;45901;47.600;9.890;2023-03-18T08:52:05;5.03;;;2.70;;
60030;SDS011;45901;47.600;9.890;2023-03-18T08:54:33;5.43;;;2.80;;
60030;SDS011;45901;47.600;9.890;2023-03-18T08:57:00;5.73;;;2.27;;
60030;SDS011;45901;47.600;9.890;2023-03-18T08:59:28;8.20;;;2.33;;
60030;SDS011;45901;47.600;9.890;2023-03-18T09:01:57;5.77;;;2.30;;
60030;SDS011;45901;47.600;9.890;2023-03-18T09:04:24;4.73;;;2.30;;
60030;SDS011;45901;47.600;9.890;2023-03-18T09:06:51;6.03;;;2.80;;
60030;SDS011;45901;47.600;9.890;2023-03-18T09:09:19;6.53;;;2.90;;
60030;SDS011;45901;47.600;9.890;2023-03-18T09:11:47;8.97;;;3.17;;
60030;SDS011;45901;47.600;9.890;2023-03-18T09:14:14;4.97;;;3.10;;
60030;SDS011;45901;47.600;9.890;2023-03-18T09:16:42;8.07;;;3.50;;
60030;SDS011;45901;47.600;9.890;2023-03-18T09:19:11;8.17;;;3.57;;
60030;SDS011;45901;47.600;9.890;2023-03-18T09:21:39;11.83;;;4.73;;
60030;SDS011;45901;47.600;9.890;2023-03-18T09:24:07;8.93;;;4.73;;
60030;SDS011;45901;47.600;9.890;2023-03-18T09:26:35;7.80;;;4.73;;
60030;SDS011;45901;47.600;9.890;2023-03-18T09:29:04;10.63;;;5.97;;
60030;SDS011;45901;47.600;9.890;2023-03-18T09:31:31;9.60;;;5.87;;
60030;SDS011;45901;47.600;9.890;2023-03-18T09:33:59;10.87;;;5.90;;
60030;SDS011;45901;47.600;9.890;2023-03-18T09:36:28;11.87;;;5.63;;
60030;SDS011;45901;47.600;9.890;2023-03-18T09:38:56;12.90;;;6.00;;
60030;SDS011;45901;47.600;9.890;2023-03-18T09:41:27;11.23;;;5.30;;
60030;SDS011;45901;47.600;9.890;2023-03-18T09:44:11;10.43;;;4.40;;
60030;SDS011;45901;47.600;9.890;2023-03-18T09:46:53;8.93;;;4.60;;
60030;SDS011;45901;47.600;9.890;2023-03-18T09:49:41;7.90;;;4.87;;
60030;SDS011;45901;47.600;9.890;2023-03-18T09:52:25;10.27;;;4.80;;
60030;SDS011;45901;47.600;9.890;2023-03-18T09:54:58;10.43;;;5.37;;
60030;SDS011;45901;47.600;9.890;2023-03-18T09:57:33;15.20;;;6.30;;
60030;SDS011;45901;47.600;9.890;2023-03-18T10:00:10;10.30;;;5.80;;
60030;SDS011;45901;47.600;9.890;2023-03-18T10:02:46;10.03;;;5.93;;
60030;SDS011;45901;47.600;9.890;2023-03-18T10:05:20;11.30;;;6.83;;
60030;SDS011;45901;47.600;9.890;2023-03-18T10:07:55;10.97;;;6.40;;
60030;SDS011;45901;47.600;9.890;2023-03-18T10:10:28;9.80;;;6.00;;
60030;SDS011;45901;47.600;9.890;2023-03-18T10:13:01;10.00;;;6.57;;
60030;SDS011;45901;47.600;9.890;2023-03-18T10:15:38;11.67;;;6.30;;
60030;SDS011;45901;47.600;9.890;2023-03-18T10:18:10;13.63;;;7.10;;
60030;SDS011;45901;47.600;9.890;2023-03-18T10:20:48;14.73;;;6.83;;
60030;SDS011;45901;47.600;9.890;2023-03-18T10:23:33;11.30;;;6.73;;
60030;SDS011;45901;47.600;9.890;2023-03-18T10:26:14;14.00;;;6.17;;
60030;SDS011;45901;47.600;9.890;2023-03-18T10:28:53;9.33;;;5.13;;
60030;SDS011;45901;47.600;9.890;2023-03-18T10:31:55;6.83;;;3.90;;
60030;SDS011;45901;47.600;9.890;2023-03-18T10:34:38;8.57;;;4.43;;
60030;SDS011;45901;47.600;9.890;2023-03-18T10:37:26;11.40;;;4.90;;
60030;SDS011;45901;47.600;9.890;2023-03-18T10:40:13;12.43;;;5.17;;
60030;SDS011;45901;47.600;9.890;2023-03-18T10:42:43;9.13;;;4.30;;
60030;SDS011;45901;47.600;9.890;2023-03-18T10:45:19;7.87;;;4.30;;
60030;SDS011;45901;47.600;9.890;2023-03-18T10:47:52;10.67;;;4.87;;
60030;SDS011;45901;47.600;9.890;2023-03-18T10:50:29;8.43;;;4.27;;
60030;SDS011;45901;47.600;9.890;2023-03-18T10:53:03;8.50;;;3.97;;
60030;SDS011;45901;47.600;9.890;2023-03-18T10:55:45;7.93;;;4.17;;
60030;SDS011;45901;47.600;9.890;2023-03-18T10:58:25;10.80;;;4.70;;
60030;SDS011;45901;47.600;9.890;2023-03-18T11:00:54;11.17;;;4.83;;
60030;SDS011;45901;47.600;9.890;2023-03-18T11:03:23;8.40;;;4.83;;
60030;SDS011;45901;47.600;9.890;2023-03-18T11:05:53;10.20;;;4.43;;
60030;SDS011;45901;47.600;9.890;2023-03-18T11:08:29;9.37;;;4.10;;
60030;SDS011;45901;47.600;9.890;2023-03-18T11:11:03;7.13;;;3.70;;
60030;SDS011;45901;47.600;9.890;2023-03-18T11:13:46;10.47;;;4.70;;
60030;SDS011;45901;47.600;9.890;2023-03-18T11:16:24;6.07;;;3.60;;
60030;SDS011;45901;47.600;9.890;2023-03-18T11:22:03;7.70;;;3.83;;
60030;SDS011;45901;47.600;9.890;2023-03-18T11:24:43;7.53;;;4.20;;
60030;SDS011;45901;47.600;9.890;2023-03-18T11:30:08;6.73;;;3.67;;
60030;SDS011;45901;47.600;9.890;2023-03-18T11:32:52;8.93;;;3.50;;
60030;SDS011;45901;47.600;9.890;2023-03-18T11:35:23;8.50;;;4.10;;
60030;SDS011;45901;47.600;9.890;2023-03-18T11:38:02;10.10;;;4.17;;
60030;SDS011;45901;47.600;9.890;2023-03-18T11:40:31;6.83;;;3.90;;
60030;SDS011;45901;47.600;9.890;2023-03-18T11:43:01;8.97;;;4.00;;
60030;SDS011;45901;47.600;9.890;2023-03-18T11:45:43;7.93;;;3.97;;
60030;SDS011;45901;47.600;9.890;2023-03-18T11:48:18;7.00;;;3.60;;
60030;SDS011;45901;47.600;9.890;2023-03-18T11:54:22;7.33;;;3.60;;
60030;SDS011;45901;47.600;9.890;2023-03-18T11:57:07;7.70;;;4.33;;
60030;SDS011;45901;47.600;9.890;2023-03-18T11:59:45;6.93;;;4.20;;
60030;SDS011;45901;47.600;9.890;2023-03-18T12:02:29;6.83;;;3.80;;
60030;SDS011;45901;47.600;9.890;2023-03-18T12:05:35;9.63;;;4.60;;
60030;SDS011;45901;47.600;9.890;2023-03-18T12:08:17;7.40;;;4.03;;
60030;SDS011;45901;47.600;9.890;2023-03-18T12:10:56;8.80;;;4.30;;
60030;SDS011;45901;47.600;9.890;2023-03-18T12:13:35;7.77;;;3.80;;
60030;SDS011;45901;47.600;9.890;2023-03-18T12:16:17;8.07;;;3.87;;
60030;SDS011;45901;47.600;9.890;2023-03-18T12:18:58;8.03;;;4.47;;
60030;SDS011;45901;47.600;9.890;2023-03-18T12:21:48;9.07;;;4.27;;
60030;SDS011;45901;47.600;9.890;2023-03-18T12:24:39;6.53;;;4.03;;
60030;SDS011;45901;47.600;9.890;2023-03-18T12:27:23;7.17;;;4.43;;
60030;SDS011;45901;47.600;9.890;2023-03-18T12:30:12;7.13;;;4.33;;
60030;SDS011;45901;47.600;9.890;2023-03-18T12:33:18;10.23;;;4.53;;
60030;SDS011;45901;47.600;9.890;2023-03-18T12:36:12;10.07;;;4.47;;
60030;SDS011;45901;47.600;9.890;2023-03-18T12:38:53;9.43;;;4.20;;
60030;SDS011;45901;47.600;9.890;2023-03-18T12:41:42;7.60;;;4.90;;
60030;SDS011;45901;47.600;9.890;2023-03-18T12:44:24;9.87;;;5.03;;
60030;SDS011;45901;47.600;9.890;2023-03-18T12:47:08;8.47;;;4.27;;
60030;SDS011;45901;47.600;9.890;2023-03-18T12:49:46;7.93;;;4.20;;
60030;SDS011;45901;47.600;9.890;2023-03-18T12:52:21;6.70;;;4.30;;
60030;SDS011;45901;47.600;9.890;2023-03-18T12:54:57;7.53;;;4.43;;
60030;SDS011;45901;47.600;9.890;2023-03-18T12:57:32;7.60;;;4.40;;
60030;SDS011;45901;47.600;9.890;2023-03-18T13:00:13;7.20;;;3.90;;
60030;SDS011;45901;47.600;9.890;2023-03-18T13:02:54;9.80;;;4.20;;
60030;SDS011;45901;47.600;9.890;2023-03-18T13:05:40;6.93;;;4.07;;
60030;SDS011;45901;47.600;9.890;2023-03-18T13:11:31;8.63;;;3.80;;
60030;SDS011;45901;47.600;9.890;2023-03-18T13:14:15;6.33;;;3.80;;
60030;SDS011;45901;47.600;9.890;2023-03-18T13:16:49;6.90;;;3.83;;
60030;SDS011;45901;47.600;9.890;2023-03-18T13:19:19;7.17;;;3.60;;
60030;SDS011;45901;47.600;9.890;2023-03-18T13:21:48;6.20;;;3.50;;
60030;SDS011;45901;47.600;9.890;2023-03-18T13:30:22;6.00;;;3.27;;
60030;SDS011;45901;47.600;9.890;2023-03-18T13:33:06;6.07;;;3.23;;
60030;SDS011;45901;47.600;9.890;2023-03-18T13:36:09;9.43;;;3.47;;
60030;SDS011;45901;47.600;9.890;2023-03-18T13:38:55;6.47;;;3.10;;
60030;SDS011;45901;47.600;9.890;2023-03-18T13:41:44;5.43;;;2.70;;
60030;SDS011;45901;47.600;9.890;2023-03-18T13:44:47;4.53;;;2.93;;
60030;SDS011;45901;47.600;9.890;2023-03-18T13:47:28;3.93;;;2.47;;
60030;SDS011;45901;47.600;9.890;2023-03-18T13:49:59;6.17;;;2.10;;
60030;SDS011;45901;47.600;9.890;2023-03-18T13:52:34;5.50;;;2.30;;
60030;SDS011;45901;47.600;9.890;2023-03-18T13:55:14;5.20;;;2.23;;
60030;SDS011;45901;47.600;9.890;2023-03-18T13:57:56;5.60;;;1.87;;
60030;SDS011;45901;47.600;9.890;2023-03-18T14:00:43;4.27;;;1.80;;
60030;SDS011;45901;47.600;9.890;2023-03-18T14:03:51;3.30;;;1.90;;
60030;SDS011;45901;47.600;9.890;2023-03-18T14:06:44;4.07;;;1.67;;
60030;SDS011;45901;47.600;9.890;2023-03-18T14:09:32;4.97;;;1.63;;
60030;SDS011;45901;47.600;9.890;2023-03-18T14:12:16;4.23;;;1.77;;
60030;SDS011;45901;47.600;9.890;2023-03-18T14:20:51;4.93;;;1.10;;
60030;SDS011;45901;47.600;9.890;2023-03-18T14:23:36;3.40;;;1.30;;
60030;SDS011;45901;47.600;9.890;2023-03-18T14:26:26;3.97;;;1.43;;
60030;SDS011;45901;47.600;9.890;2023-03-18T14:29:01;3.07;;;1.20;;
60030;SDS011;45901;47.600;9.890;2023-03-18T14:31:54;2.33;;;1.07;;
60030;SDS011;45901;47.600;9.890;2023-03-18T14:34:27;2.07;;;1.20;;
60030;SDS011;45901;47.600;9.890;2023-03-18T14:40:02;4.30;;;1.23;;
60030;SDS011;45901;47.600;9.890;2023-03-18T14:42:42;3.07;;;1.00;;
60030;SDS011;45901;47.600;9.890;2023-03-18T14:45:19;3.70;;;1.13;;
60030;SDS011;45901;47.600;9.890;2023-03-18T14:47:52;4.20;;;1.10;;
60030;SDS011;45901;47.600;9.890;2023-03-18T14:50:33;3.70;;;0.90;;
60030;SDS011;45901;47.600;9.890;2023-03-18T14:53:11;4.17;;;1.00;;
60030;SDS011;45901;47.600;9.890;2023-03-18T14:55:47;3.57;;;1.13;;
60030;SDS011;45901;47.600;9.890;2023-03-18T14:58:15;1.70;;;0.90;;
60030;SDS011;45901;47.600;9.890;2023-03-18T15:00:47;2.13;;;0.73;;
60030;SDS011;45901;47.600;9.890;2023-03-18T15:03:19;2.70;;;0.97;;
60030;SDS011;45901;47.600;9.890;2023-03-18T15:05:49;2.77;;;1.00;;
60030;SDS011;45901;47.600;9.890;2023-03-18T15:08:24;3.33;;;0.90;;
60030;SDS011;45901;47.600;9.890;2023-03-18T15:10:55;3.90;;;1.20;;
60030;SDS011;45901;47.600;9.890;2023-03-18T15:13:24;2.97;;;0.90;;
60030;SDS011;45901;47.600;9.890;2023-03-18T15:15:53;6.03;;;1.60;;
60030;SDS011;45901;47.600;9.890;2023-03-18T15:18:23;2.30;;;0.97;;
60030;SDS011;45901;47.600;9.890;2023-03-18T15:20:54;3.50;;;1.50;;
60030;SDS011;45901;47.600;9.890;2023-03-18T15:23:26;7.00;;;1.17;;
60030;SDS011;45901;47.600;9.890;2023-03-18T15:25:57;1.30;;;0.83;;
60030;SDS011;45901;47.600;9.890;2023-03-18T15:28:25;1.63;;;0.80;;
60030;SDS011;45901;47.600;9.890;2023-03-18T15:30:56;2.07;;;1.00;;
60030;SDS011;45901;47.600;9.890;2023-03-18T15:33:28;1.67;;;0.90;;
60030;SDS011;45901;47.600;9.890;2023-03-18T15:36:02;3.60;;;1.07;;
60030;SDS011;45901;47.600;9.890;2023-03-18T15:38:31;3.30;;;1.10;;
60030;SDS011;45901;47.600;9.890;2023-03-18T15:40:59;3.10;;;1.00;;